Time;durP1;ratioP1;P1;durP2;ratioP2;P2;SDS_P1;SDS_P2;PMS_P1;PMS_P2;Temp;Humidity;BMP_temperature;BMP_pressure;BME280_temperature;BME280_humidity;BME280_pressure;Samples;Min_cycle;Max_cycle;Signal;HPM_P1;HPM_P2
2022/08/21 00:01:32;;;;;;;2.47;1.80;;;15.00;99.90;;;;;;5074436;28;20029;-71
2022/08/21 00:04:03;;;;;;;2.90;2.00;;;15.00;99.90;;;;;;5075944;28;20055;-71
2022/08/21 00:06:29;;;;;;;4.60;1.65;;;15.00;99.90;;;;;;5075648;28;20043;-71
2022/08/21 00:08:54;;;;;;;2.60;1.40;;;15.00;99.90;;;;;;5075382;28;20464;-71
2022/08/21 00:11:20;;;;;;;2.40;1.50;;;15.00;99.90;;;;;;5075407;28;20388;-71
2022/08/21 00:13:46;;;;;;;3.10;1.88;;;15.00;99.90;;;;;;5075476;28;20027;-71
2022/08/21 00:16:12;;;;;;;2.78;1.73;;;15.10;99.90;;;;;;5075464;28;20029;-71
2022/08/21 00:18:37;;;;;;;2.63;1.67;;;15.10;99.90;;;;;;5075399;28;20063;-71
2022/08/21 00:21:04;;;;;;;3.03;1.70;;;15.20;99.90;;;;;;5075319;28;20050;-70
2022/08/21 00:23:30;;;;;;;2.90;1.95;;;15.20;99.90;;;;;;5075579;28;20056;-70
2022/08/21 00:25:56;;;;;;;3.25;1.92;;;15.20;99.90;;;;;;5075265;28;20036;-70
2022/08/21 00:28:22;;;;;;;3.10;1.90;;;15.20;99.90;;;;;;5075402;28;20025;-71
2022/08/21 00:30:47;;;;;;;2.72;2.10;;;15.20;99.90;;;;;;5074729;28;20024;-70
2022/08/21 00:33:13;;;;;;;3.70;2.60;;;15.20;99.90;;;;;;5073809;28;20032;-70
2022/08/21 00:35:41;;;;;;;4.38;2.28;;;15.10;99.90;;;;;;5075006;28;20024;-71
2022/08/21 00:38:08;;;;;;;3.58;2.38;;;15.10;99.90;;;;;;5074975;28;20361;-71
2022/08/21 00:40:56;;;;;;;3.97;2.55;;;15.10;99.90;;;;;;5075235;28;20443;-71
2022/08/21 00:43:27;;;;;;;3.38;2.40;;;15.00;99.90;;;;;;5074782;28;20023;-71
2022/08/21 00:45:55;;;;;;;3.80;1.90;;;15.00;99.90;;;;;;5075103;28;20155;-71
2022/08/21 00:48:22;;;;;;;3.33;2.03;;;15.00;99.90;;;;;;5074698;28;20025;-71
2022/08/21 00:50:59;;;;;;;2.53;1.63;;;15.00;99.90;;;;;;5074691;28;20532;-71
2022/08/21 00:53:26;;;;;;;2.80;2.00;;;15.00;99.90;;;;;;5075514;28;20032;-71
2022/08/21 00:55:52;;;;;;;3.30;1.85;;;15.00;99.90;;;;;;5074904;28;20028;-71
2022/08/21 00:58:19;;;;;;;2.70;1.63;;;15.00;99.90;;;;;;5074564;28;20054;-71
2022/08/21 01:00:47;;;;;;;2.67;1.70;;;15.00;99.90;;;;;;5074501;28;20032;-71
2022/08/21 01:03:17;;;;;;;3.65;1.50;;;15.00;99.90;;;;;;5080193;28;20020;-71
2022/08/21 01:05:43;;;;;;;3.00;1.70;;;15.00;99.90;;;;;;5094183;28;20028;-71
2022/08/21 01:08:11;;;;;;;3.17;1.60;;;15.00;99.90;;;;;;5086789;28;20385;-71
2022/08/21 01:10:37;;;;;;;2.83;1.85;;;15.00;99.90;;;;;;5079421;28;20081;-71
2022/08/21 01:13:07;;;;;;;4.82;1.63;;;14.90;99.90;;;;;;5074241;28;20388;-72
2022/08/21 01:15:36;;;;;;;3.78;1.95;;;14.90;99.90;;;;;;5079727;28;20024;-72
2022/08/21 01:18:04;;;;;;;2.38;1.60;;;15.00;99.90;;;;;;5081839;28;20020;-72
2022/08/21 01:20:30;;;;;;;4.28;1.73;;;15.00;99.90;;;;;;5073121;28;20024;-72
2022/08/21 01:22:56;;;;;;;3.40;2.03;;;15.00;99.90;;;;;;5074289;28;20040;-71
2022/08/21 01:25:22;;;;;;;2.40;1.55;;;15.00;99.90;;;;;;5074251;28;20021;-72
2022/08/21 01:27:49;;;;;;;2.38;1.63;;;15.00;99.90;;;;;;5083477;28;20024;-72
2022/08/21 01:30:19;;;;;;;3.13;1.58;;;15.10;99.90;;;;;;5093609;28;20107;-71
2022/08/21 01:32:45;;;;;;;4.07;1.60;;;15.10;99.90;;;;;;5093565;28;20040;-71
2022/08/21 01:35:13;;;;;;;3.90;2.33;;;15.10;99.90;;;;;;5093749;28;20031;-72
2022/08/21 01:37:39;;;;;;;2.67;1.60;;;15.10;99.90;;;;;;5092588;28;20089;-71
2022/08/21 01:40:07;;;;;;;3.22;1.75;;;15.10;99.90;;;;;;5094089;28;20036;-72
2022/08/21 01:42:33;;;;;;;3.38;1.75;;;15.10;99.90;;;;;;5094046;28;20032;-72
2022/08/21 01:44:59;;;;;;;3.35;1.95;;;15.10;99.90;;;;;;5094322;28;20039;-72
2022/08/21 01:47:25;;;;;;;2.45;1.42;;;15.10;99.90;;;;;;5093971;28;20471;-72
2022/08/21 01:49:51;;;;;;;2.10;1.20;;;15.10;99.90;;;;;;5092584;28;20032;-71
2022/08/21 01:52:17;;;;;;;3.13;1.33;;;15.20;99.90;;;;;;5093805;28;20053;-71
2022/08/21 01:54:43;;;;;;;2.75;1.45;;;15.20;99.90;;;;;;5093623;28;20103;-72
2022/08/21 01:57:09;;;;;;;3.00;1.50;;;15.20;99.90;;;;;;5092532;28;20042;-71
2022/08/21 01:59:35;;;;;;;2.92;1.45;;;15.20;99.90;;;;;;5093780;28;20028;-71
2022/08/21 02:02:01;;;;;;;2.15;1.40;;;15.20;99.90;;;;;;5093784;28;20024;-71
2022/08/21 02:04:26;;;;;;;2.75;1.50;;;15.20;99.90;;;;;;5093719;28;20119;-71
2022/08/21 02:06:52;;;;;;;3.22;2.00;;;15.20;99.90;;;;;;5093458;28;20104;-70
2022/08/21 02:09:19;;;;;;;2.55;1.63;;;15.10;99.90;;;;;;5093890;28;20117;-71
2022/08/21 02:11:45;;;;;;;3.88;1.75;;;15.10;99.90;;;;;;5093552;28;20039;-71
2022/08/21 02:14:12;;;;;;;3.20;1.60;;;15.10;99.90;;;;;;5093581;28;20028;-71
2022/08/21 02:16:39;;;;;;;2.50;1.63;;;15.10;99.90;;;;;;5093552;28;20387;-71
2022/08/21 02:19:05;;;;;;;2.38;1.40;;;15.10;99.90;;;;;;5093822;28;20035;-71
2022/08/21 02:21:31;;;;;;;2.30;1.63;;;15.10;99.90;;;;;;5093463;28;20032;-71
2022/08/21 02:23:57;;;;;;;2.92;1.95;;;15.10;99.90;;;;;;5093794;28;20036;-71
2022/08/21 02:26:23;;;;;;;2.42;1.65;;;15.10;99.90;;;;;;5093505;28;20100;-71
2022/08/21 02:28:49;;;;;;;3.10;1.73;;;15.10;99.90;;;;;;5093459;28;20028;-71
2022/08/21 02:31:15;;;;;;;1.80;1.33;;;15.20;99.90;;;;;;5093815;28;20028;-71
2022/08/21 02:33:41;;;;;;;2.63;1.40;;;15.10;99.90;;;;;;5093401;28;20050;-71
2022/08/21 02:36:09;;;;;;;2.70;1.50;;;15.20;99.90;;;;;;5093388;28;20383;-71
2022/08/21 02:38:38;;;;;;;2.67;1.73;;;15.20;99.90;;;;;;5093406;28;20032;-71
2022/08/21 02:41:07;;;;;;;3.92;1.70;;;15.20;99.90;;;;;;5093291;28;20020;-71
2022/08/21 02:43:33;;;;;;;2.83;1.88;;;15.20;99.90;;;;;;5093620;28;20036;-70
2022/08/21 02:46:00;;;;;;;3.47;2.10;;;15.20;99.90;;;;;;5093580;28;20063;-71
2022/08/21 02:48:31;;;;;;;2.95;1.70;;;15.20;99.90;;;;;;5093764;28;20025;-72
2022/08/21 02:51:04;;;;;;;3.72;1.77;;;15.20;99.90;;;;;;5093418;28;20076;-71
2022/08/21 02:53:30;;;;;;;3.33;1.70;;;15.20;99.90;;;;;;5093505;28;20047;-71
2022/08/21 02:55:59;;;;;;;2.10;1.25;;;15.10;99.90;;;;;;5093186;28;20048;-71
2022/08/21 02:58:31;;;;;;;3.08;1.88;;;15.10;99.90;;;;;;5093156;28;20103;-71
2022/08/21 03:00:58;;;;;;;2.47;1.58;;;15.10;99.90;;;;;;5093422;28;20048;-71
2022/08/21 03:03:24;;;;;;;2.70;1.63;;;15.10;99.90;;;;;;5093168;28;20455;-71
2022/08/21 03:05:51;;;;;;;2.92;1.80;;;15.10;99.90;;;;;;5093682;28;20039;-70
2022/08/21 03:08:18;;;;;;;3.55;1.50;;;15.10;99.90;;;;;;5095641;28;20032;-72
2022/08/21 03:10:47;;;;;;;3.33;1.50;;;15.10;99.90;;;;;;5096911;28;20031;-71
2022/08/21 03:13:14;;;;;;;2.30;1.33;;;15.10;99.90;;;;;;5096864;28;20016;-71
2022/08/21 03:15:41;;;;;;;2.15;1.20;;;15.00;99.90;;;;;;5096804;28;20161;-72
2022/08/21 03:18:08;;;;;;;2.88;1.40;;;15.00;99.90;;;;;;5096784;28;20028;-71
2022/08/21 03:20:35;;;;;;;3.47;1.33;;;15.00;99.90;;;;;;5096717;28;20052;-71
2022/08/21 03:23:03;;;;;;;3.20;1.50;;;15.00;99.90;;;;;;5096658;28;20030;-71
2022/08/21 03:25:31;;;;;;;3.67;1.63;;;15.00;99.90;;;;;;5096649;28;20024;-72
2022/08/21 03:27:58;;;;;;;3.63;2.05;;;15.00;99.90;;;;;;5096889;28;20023;-71
2022/08/21 03:30:23;;;;;;;2.33;1.55;;;15.00;99.90;;;;;;5095281;28;20032;-72
2022/08/21 03:32:50;;;;;;;2.90;1.63;;;14.90;99.90;;;;;;5096384;28;20027;-72
2022/08/21 03:35:16;;;;;;;2.92;1.70;;;14.90;99.90;;;;;;5095231;28;20054;-72
2022/08/21 03:37:42;;;;;;;2.92;2.00;;;14.90;99.90;;;;;;5096701;28;20055;-72
2022/08/21 03:40:09;;;;;;;3.88;2.25;;;14.90;99.90;;;;;;5096950;28;20024;-72
2022/08/21 03:42:35;;;;;;;3.00;2.00;;;15.00;99.90;;;;;;5096242;28;20027;-72
2022/08/21 03:45:01;;;;;;;3.15;2.10;;;14.90;99.90;;;;;;5096264;28;20032;-72
2022/08/21 03:47:27;;;;;;;3.05;2.10;;;14.90;99.90;;;;;;5096265;28;20066;-72
2022/08/21 03:49:54;;;;;;;2.78;1.92;;;14.90;99.90;;;;;;5096139;28;20051;-72
2022/08/21 03:52:19;;;;;;;3.92;2.20;;;15.00;99.90;;;;;;5096090;28;20028;-71
2022/08/21 03:54:46;;;;;;;3.15;2.00;;;15.00;99.90;;;;;;5096096;28;20499;-72
2022/08/21 03:57:12;;;;;;;2.83;1.92;;;15.00;99.90;;;;;;5096576;28;20107;-72
2022/08/21 03:59:39;;;;;;;3.63;2.10;;;15.00;99.90;;;;;;5096002;28;20035;-72
2022/08/21 04:02:06;;;;;;;2.88;2.15;;;15.10;99.90;;;;;;5095904;28;20035;-72
2022/08/21 04:04:33;;;;;;;3.15;1.98;;;15.10;99.90;;;;;;5095919;28;20121;-72
2022/08/21 04:06:59;;;;;;;3.78;2.72;;;15.10;99.90;;;;;;5096015;28;20063;-72
2022/08/21 04:09:25;;;;;;;3.15;2.20;;;15.10;99.90;;;;;;5095763;28;20495;-71
2022/08/21 04:11:50;;;;;;;4.47;2.13;;;15.10;99.90;;;;;;5095979;28;20426;-71
2022/08/21 04:14:17;;;;;;;3.78;2.60;;;15.10;99.90;;;;;;5095718;28;20025;-72
2022/08/21 04:16:43;;;;;;;2.42;1.77;;;15.10;99.90;;;;;;5094549;28;20032;-71
2022/08/21 04:19:10;;;;;;;3.40;2.13;;;15.10;99.90;;;;;;5093873;28;20575;-71
2022/08/21 04:21:37;;;;;;;3.25;2.17;;;15.10;99.90;;;;;;5094287;28;20111;-71
2022/08/21 04:24:04;;;;;;;3.25;2.10;;;15.10;99.90;;;;;;5095524;28;20024;-71
2022/08/21 04:26:30;;;;;;;2.92;1.90;;;15.10;99.90;;;;;;5095432;28;20039;-71
2022/08/21 04:28:59;;;;;;;2.75;2.00;;;15.10;99.90;;;;;;5095630;28;20450;-71
2022/08/21 04:31:25;;;;;;;3.03;1.95;;;15.10;99.90;;;;;;5095342;28;20048;-71
2022/08/21 04:33:51;;;;;;;3.70;2.30;;;15.00;99.90;;;;;;5095319;28;20427;-71
2022/08/21 04:36:17;;;;;;;3.78;2.30;;;15.00;99.90;;;;;;5094142;28;20073;-71
2022/08/21 04:38:43;;;;;;;3.65;2.22;;;15.00;99.90;;;;;;5095766;28;20052;-71
2022/08/21 04:41:08;;;;;;;3.42;2.40;;;15.00;99.90;;;;;;5095137;28;20032;-71
2022/08/21 04:43:34;;;;;;;3.03;2.10;;;15.00;99.90;;;;;;5095427;28;20031;-71
2022/08/21 04:46:00;;;;;;;3.97;2.25;;;15.00;99.90;;;;;;5095056;28;20024;-71
2022/08/21 04:48:26;;;;;;;3.13;2.13;;;15.00;99.90;;;;;;5094966;28;20043;-72
2022/08/21 04:50:54;;;;;;;4.07;1.80;;;15.10;99.90;;;;;;5095437;28;20053;-71
2022/08/21 04:53:22;;;;;;;3.78;2.03;;;15.00;99.90;;;;;;5094936;28;20016;-72
2022/08/21 04:55:48;;;;;;;2.80;1.90;;;15.10;99.90;;;;;;5095058;28;20024;-71
2022/08/21 04:58:18;;;;;;;3.75;1.95;;;15.10;99.90;;;;;;5095147;28;20031;-71
2022/08/21 05:00:45;;;;;;;4.68;2.25;;;15.10;99.90;;;;;;5094777;28;20020;-72
2022/08/21 05:03:12;;;;;;;3.95;1.70;;;15.10;99.90;;;;;;5094716;28;20024;-71
2022/08/21 05:05:39;;;;;;;2.75;1.95;;;15.10;99.90;;;;;;5094745;28;20025;-71
2022/08/21 05:08:07;;;;;;;2.60;1.60;;;15.10;99.90;;;;;;5094509;28;20079;-72
2022/08/21 05:10:33;;;;;;;4.15;1.60;;;15.10;99.90;;;;;;5094973;28;20126;-71
2022/08/21 05:13:00;;;;;;;2.83;1.88;;;15.10;99.90;;;;;;5094518;28;20468;-72
2022/08/21 05:15:26;;;;;;;3.17;1.70;;;15.10;99.90;;;;;;5094541;28;20017;-71
2022/08/21 05:17:52;;;;;;;3.60;2.13;;;15.10;99.90;;;;;;5094743;28;20020;-71
2022/08/21 05:20:19;;;;;;;4.55;2.50;;;15.10;99.90;;;;;;5094502;28;20480;-71
2022/08/21 05:22:45;;;;;;;3.33;2.22;;;15.20;99.90;;;;;;5094312;28;20024;-71
2022/08/21 05:25:11;;;;;;;3.15;2.08;;;15.20;99.90;;;;;;5094644;28;20512;-71
2022/08/21 05:27:38;;;;;;;3.20;2.17;;;15.10;99.90;;;;;;5093035;28;20066;-72
2022/08/21 05:30:07;;;;;;;3.55;2.30;;;15.20;99.90;;;;;;5093672;28;20028;-71
2022/08/21 05:32:33;;;;;;;3.05;1.98;;;15.10;99.90;;;;;;5094135;28;20027;-71
2022/08/21 05:34:59;;;;;;;2.65;1.85;;;15.20;99.90;;;;;;5094168;28;20028;-71
2022/08/21 05:37:24;;;;;;;3.10;2.00;;;15.20;99.90;;;;;;5094118;28;20020;-72
2022/08/21 05:39:50;;;;;;;2.95;2.10;;;15.20;99.90;;;;;;5093076;28;20032;-72
2022/08/21 05:42:16;;;;;;;3.10;1.88;;;15.30;99.90;;;;;;5094043;28;20157;-71
2022/08/21 05:44:42;;;;;;;2.58;1.95;;;15.30;99.90;;;;;;5094314;28;20024;-71
2022/08/21 05:47:10;;;;;;;3.33;2.30;;;15.40;99.90;;;;;;5093970;28;20024;-71
2022/08/21 05:49:36;;;;;;;3.40;2.30;;;15.40;99.90;;;;;;5093872;28;20055;-71
2022/08/21 05:52:02;;;;;;;2.58;1.73;;;15.40;99.90;;;;;;5094108;28;20021;-71
2022/08/21 05:54:28;;;;;;;3.97;2.60;;;15.40;99.90;;;;;;5093908;28;20091;-70
2022/08/21 05:56:54;;;;;;;3.13;2.20;;;15.40;99.90;;;;;;5093855;28;20107;-71
2022/08/21 05:59:20;;;;;;;2.90;2.15;;;15.50;99.90;;;;;;5093810;28;20468;-71
2022/08/21 06:01:46;;;;;;;3.33;2.53;;;15.60;99.90;;;;;;5092643;28;20492;-71
2022/08/21 06:04:13;;;;;;;4.40;2.20;;;15.60;99.90;;;;;;5094070;28;20028;-71
2022/08/21 06:06:39;;;;;;;3.58;2.33;;;15.60;99.90;;;;;;5093601;28;20035;-72
2022/08/21 06:09:05;;;;;;;4.03;2.33;;;15.70;99.90;;;;;;5092336;28;20024;-71
2022/08/21 06:11:32;;;;;;;4.22;1.83;;;15.70;99.90;;;;;;5093600;28;20021;-71
2022/08/21 06:13:59;;;;;;;2.28;1.60;;;15.70;99.90;;;;;;5093655;28;20024;-71
2022/08/21 06:16:25;;;;;;;3.97;2.00;;;15.70;99.90;;;;;;5093620;28;20024;-71
2022/08/21 06:18:51;;;;;;;2.35;1.70;;;15.70;99.90;;;;;;5093609;28;20019;-71
2022/08/21 06:21:17;;;;;;;2.22;1.38;;;15.70;99.90;;;;;;5093663;28;20559;-71
2022/08/21 06:23:43;;;;;;;2.30;1.55;;;15.60;99.90;;;;;;5093555;28;20028;-71
2022/08/21 06:26:11;;;;;;;2.75;1.70;;;15.70;99.90;;;;;;5093735;28;20480;-71
2022/08/21 06:28:37;;;;;;;1.90;1.17;;;15.80;99.90;;;;;;5093689;28;20111;-71
2022/08/21 06:31:18;;;;;;;3.35;1.40;;;15.80;99.90;;;;;;5093627;28;20024;-72
2022/08/21 06:33:45;;;;;;;;;;;16.00;99.90;;;;;;5093844;28;20056;-71
2022/08/21 06:36:11;;;;;;;3.38;2.00;;;16.10;99.90;;;;;;5093361;28;20367;-71
2022/08/21 06:38:38;;;;;;;2.83;1.80;;;16.10;99.90;;;;;;5093926;28;20040;-71
2022/08/21 06:41:04;;;;;;;3.85;1.65;;;16.10;99.90;;;;;;5094421;28;20028;-71
2022/08/21 06:43:30;;;;;;;2.75;1.60;;;16.20;99.90;;;;;;5097752;28;20479;-71
2022/08/21 06:45:56;;;;;;;3.80;2.30;;;16.30;99.90;;;;;;5097395;28;20028;-71
2022/08/21 06:48:22;;;;;;;2.88;1.85;;;16.30;99.90;;;;;;5097325;28;20388;-71
2022/08/21 06:50:48;;;;;;;3.45;2.13;;;16.40;99.90;;;;;;5097852;28;20483;-72
2022/08/21 06:53:18;;;;;;;2.78;2.13;;;16.50;99.90;;;;;;5097821;28;20035;-72
2022/08/21 06:55:45;;;;;;;3.10;1.95;;;16.60;99.90;;;;;;5095710;28;20024;-72
2022/08/21 06:58:11;;;;;;;2.15;1.40;;;16.70;99.90;;;;;;5095633;28;20020;-72
2022/08/21 07:00:43;;;;;;;2.25;1.33;;;16.80;99.90;;;;;;5095524;28;20069;-72
2022/08/21 07:03:21;;;;;;;1.85;1.50;;;16.80;99.90;;;;;;5095527;28;20024;-72
2022/08/21 07:05:47;;;;;;;2.58;1.20;;;16.90;99.90;;;;;;5096821;28;20035;-73
2022/08/21 07:08:13;;;;;;;2.10;1.30;;;16.90;99.90;;;;;;5096942;28;20032;-72
2022/08/21 07:10:39;;;;;;;1.90;1.20;;;17.10;99.90;;;;;;5097026;28;20058;-73
2022/08/21 07:13:05;;;;;;;3.15;1.70;;;17.10;99.90;;;;;;5096861;28;20395;-72
2022/08/21 07:15:32;;;;;;;2.03;1.33;;;17.20;99.90;;;;;;5102124;28;20049;-72
2022/08/21 07:17:59;;;;;;;2.50;1.83;;;17.30;99.90;;;;;;5095911;28;20111;-71
2022/08/21 07:20:26;;;;;;;2.35;1.65;;;17.30;99.90;;;;;;5096764;28;20028;-72
2022/08/21 07:22:52;;;;;;;2.83;2.13;;;17.40;99.90;;;;;;5096673;28;20028;-72
2022/08/21 07:25:18;;;;;;;2.58;1.80;;;17.40;99.90;;;;;;5096908;28;20036;-72
2022/08/21 07:27:44;;;;;;;2.80;1.63;;;17.30;99.90;;;;;;5095724;28;20028;-72
2022/08/21 07:30:10;;;;;;;3.95;1.88;;;17.30;99.90;;;;;;5096801;28;20393;-72
2022/08/21 07:32:36;;;;;;;3.05;1.73;;;17.40;99.90;;;;;;5096564;28;20099;-72
2022/08/21 07:35:02;;;;;;;8.02;2.25;;;17.40;99.90;;;;;;5096494;28;20104;-72
2022/08/21 07:37:27;;;;;;;2.83;1.90;;;17.60;99.90;;;;;;5096778;28;20070;-72
2022/08/21 07:39:53;;;;;;;3.05;1.58;;;17.70;99.90;;;;;;5096610;28;20028;-72
2022/08/21 07:42:19;;;;;;;2.97;1.83;;;17.80;99.90;;;;;;5096430;28;20119;-72
2022/08/21 07:44:44;;;;;;;2.00;1.63;;;17.90;99.90;;;;;;5095000;28;20028;-72
2022/08/21 07:47:10;;;;;;;2.83;1.70;;;18.10;99.90;;;;;;5096436;28;20027;-72
2022/08/21 07:49:36;;;;;;;2.35;1.48;;;18.20;99.90;;;;;;5096190;28;20052;-72
2022/08/21 07:52:02;;;;;;;2.05;1.35;;;18.30;99.90;;;;;;5096000;28;20458;-72
2022/08/21 07:54:27;;;;;;;3.08;1.40;;;18.40;99.90;;;;;;5095360;28;20077;-72
2022/08/21 07:56:53;;;;;;;3.38;1.77;;;18.50;99.90;;;;;;5095193;28;20024;-72
2022/08/21 07:59:19;;;;;;;2.17;1.50;;;18.50;99.90;;;;;;5096266;28;20063;-72
2022/08/21 08:01:44;;;;;;;2.50;1.52;;;18.50;99.90;;;;;;5096071;28;20095;-72
2022/08/21 08:04:10;;;;;;;2.50;1.58;;;18.40;99.90;;;;;;5095911;28;20024;-72
2022/08/21 08:06:36;;;;;;;2.60;1.45;;;18.40;99.90;;;;;;5096078;28;20392;-72
2022/08/21 08:09:05;;;;;;;2.45;1.38;;;18.40;99.90;;;;;;5095919;28;20039;-72
2022/08/21 08:11:31;;;;;;;3.85;1.52;;;18.50;99.90;;;;;;5095748;28;20024;-73
2022/08/21 08:13:59;;;;;;;2.10;1.40;;;18.70;99.90;;;;;;5095726;28;20388;-73
2022/08/21 08:16:25;;;;;;;3.28;1.48;;;18.80;99.90;;;;;;5095685;28;20400;-72
2022/08/21 08:18:51;;;;;;;2.15;1.23;;;18.90;99.90;;;;;;5094344;28;20024;-72
2022/08/21 08:21:20;;;;;;;2.40;1.50;;;18.90;99.90;;;;;;5095855;28;20032;-72
2022/08/21 08:23:46;;;;;;;1.88;1.27;;;19.10;99.90;;;;;;5096159;28;20029;-72
2022/08/21 08:26:12;;;;;;;3.00;1.50;;;19.20;99.90;;;;;;5094288;28;20040;-72
2022/08/21 08:28:38;;;;;;;2.25;1.40;;;19.40;99.90;;;;;;5095452;28;20454;-72
2022/08/21 08:31:04;;;;;;;2.28;1.27;;;19.50;99.90;;;;;;5095571;28;20024;-72
2022/08/21 08:33:30;;;;;;;1.70;1.10;;;19.60;99.90;;;;;;5095369;28;20066;-72
2022/08/21 08:35:55;;;;;;;2.00;1.10;;;19.70;99.90;;;;;;5095652;28;20028;-72
2022/08/21 08:38:23;;;;;;;2.35;1.10;;;19.80;99.90;;;;;;5095260;28;20104;-72
2022/08/21 08:41:01;;;;;;;2.50;1.38;;;20.00;99.90;;;;;;5095154;28;20078;-74
2022/08/21 08:43:30;;;;;;;3.90;1.42;;;20.10;99.90;;;;;;5095515;28;20016;-72
2022/08/21 08:45:58;;;;;;;6.70;1.80;;;20.20;99.90;;;;;;5095371;28;20020;-72
2022/08/21 08:49:04;;;;;;;4.78;1.40;;;20.30;99.90;;;;;;5094996;28;20016;-72
2022/08/21 08:51:47;;;;;;;2.65;1.30;;;20.50;99.90;;;;;;5095141;28;20499;-73
2022/08/21 08:54:42;;;;;;;1.85;1.20;;;20.70;99.90;;;;;;5094937;28;20031;-72
2022/08/21 08:57:18;;;;;;;2.42;1.40;;;20.80;99.90;;;;;;5095225;28;20468;-73
2022/08/21 08:59:48;;;;;;;3.45;1.38;;;20.80;99.90;;;;;;5094887;28;20073;-72
2022/08/21 09:02:15;;;;;;;3.00;1.30;;;20.90;99.90;;;;;;5094869;28;20107;-71
2022/08/21 09:04:42;;;;;;;3.15;1.40;;;21.00;99.90;;;;;;5095122;28;20040;-72
2022/08/21 09:07:25;;;;;;;3.92;1.23;;;21.10;99.90;;;;;;5077085;28;20036;-72
2022/08/21 09:10:12;;;;;;;3.22;1.30;;;21.20;99.90;;;;;;5094976;28;20028;-73
2022/08/21 09:13:04;;;;;;;3.78;1.40;;;21.30;99.90;;;;;;5094544;28;20108;-73
2022/08/21 09:15:51;;;;;;;3.38;1.48;;;21.40;99.90;;;;;;5094863;28;20106;-72
2022/08/21 09:18:37;;;;;;;2.70;1.48;;;21.60;99.90;;;;;;5094502;28;20020;-73
2022/08/21 09:21:36;;;;;;;2.00;1.30;;;21.70;99.90;;;;;;5095066;28;20024;-73
2022/08/21 09:24:10;;;;;;;3.33;1.35;;;21.60;99.90;;;;;;5095238;28;20333;-72
2022/08/21 09:26:50;;;;;;;3.13;1.85;;;21.40;99.90;;;;;;5093134;28;20016;-73
2022/08/21 09:29:20;;;;;;;10.40;6.03;;;21.50;99.90;;;;;;5094285;28;20024;-73
2022/08/21 09:31:45;;;;;;;3.88;2.30;;;21.60;99.90;;;;;;5094448;28;20460;-73
2022/08/21 09:34:12;;;;;;;2.50;1.23;;;21.80;99.90;;;;;;5094527;28;20043;-73
2022/08/21 09:36:45;;;;;;;2.08;1.20;;;21.90;97.90;;;;;;5094490;28;20376;-73
2022/08/21 09:39:13;;;;;;;2.55;1.20;;;21.90;98.90;;;;;;5094088;28;20020;-73
2022/08/21 09:41:40;;;;;;;2.42;1.17;;;22.00;98.80;;;;;;5094064;28;20028;-73
2022/08/21 09:44:08;;;;;;;3.67;1.00;;;22.10;97.30;;;;;;5094361;28;20024;-73
2022/08/21 09:46:34;;;;;;;3.03;1.10;;;22.10;97.90;;;;;;5093996;28;20028;-73
2022/08/21 09:49:03;;;;;;;3.45;1.25;;;22.20;97.20;;;;;;5092750;28;20059;-73
2022/08/21 09:51:35;;;;;;;2.70;1.20;;;22.30;97.10;;;;;;5094098;28;20022;-73
2022/08/21 09:54:07;;;;;;;2.13;1.20;;;22.40;95.70;;;;;;5094220;28;20028;-73
2022/08/21 09:59:52;;;;;;;2.72;1.20;;;22.60;95.00;;;;;;5094180;28;20485;-73
2022/08/21 10:02:33;;;;;;;2.58;1.10;;;22.70;93.80;;;;;;5092585;28;20032;-73
2022/08/21 10:05:06;;;;;;;2.65;1.17;;;22.90;94.90;;;;;;5093634;28;20489;-73
2022/08/21 10:07:36;;;;;;;2.92;1.48;;;23.00;95.90;;;;;;5093781;28;20484;-73
2022/08/21 10:10:08;;;;;;;2.75;1.20;;;23.20;97.20;;;;;;5093826;28;20464;-73
2022/08/21 10:12:43;;;;;;;1.42;0.90;;;23.40;94.60;;;;;;5093917;28;20036;-73
2022/08/21 10:16:00;;;;;;;2.55;1.13;;;23.50;94.40;;;;;;5093664;28;20413;-73
2022/08/21 10:18:59;;;;;;;1.83;0.93;;;23.60;91.20;;;;;;5084654;28;20044;-73
2022/08/21 10:21:57;;;;;;;2.75;1.10;;;23.70;85.00;;;;;;5092232;28;20020;-73
2022/08/21 10:24:48;;;;;;;1.80;1.00;;;23.50;81.90;;;;;;5084876;28;20500;-73
2022/08/21 10:27:26;;;;;;;2.85;1.10;;;23.20;85.10;;;;;;5093504;28;20360;-73
2022/08/21 10:30:15;;;;;;;2.28;0.98;;;22.80;83.90;;;;;;5093642;28;20418;-74
2022/08/21 10:32:55;;;;;;;1.90;1.00;;;22.60;90.00;;;;;;5082135;28;20044;-74
2022/08/21 10:35:54;;;;;;;1.77;0.90;;;22.60;89.50;;;;;;5093959;28;20418;-73
2022/08/21 10:38:29;;;;;;;2.38;1.10;;;22.70;89.50;;;;;;5094041;28;20028;-74
2022/08/21 10:41:21;;;;;;;1.90;1.10;;;22.60;91.60;;;;;;5093384;28;20386;-74
2022/08/21 10:44:21;;;;;;;2.33;1.08;;;22.50;91.50;;;;;;5093636;28;20024;-74
2022/08/21 10:47:11;;;;;;;3.03;1.60;;;22.30;91.80;;;;;;5081337;28;20043;-73
2022/08/21 10:49:37;;;;;;;2.78;1.17;;;22.20;92.00;;;;;;5093548;28;20056;-73
2022/08/21 10:52:26;;;;;;;2.00;1.00;;;22.10;91.60;;;;;;5091212;28;20105;-74
2022/08/21 10:55:02;;;;;;;2.63;1.13;;;22.20;94.50;;;;;;5084789;28;20044;-74
2022/08/21 10:57:47;;;;;;;1.80;1.05;;;22.50;90.60;;;;;;5072792;28;20450;-74
2022/08/21 11:00:17;;;;;;;3.55;1.30;;;22.80;90.20;;;;;;5072748;28;20469;-73
2022/08/21 11:02:51;;;;;;;5.50;1.60;;;22.90;86.10;;;;;;5072689;28;20040;-74
2022/08/21 11:05:26;;;;;;;10.07;4.75;;;23.00;92.20;;;;;;5070751;28;20108;-73
2022/08/21 11:08:04;;;;;;;2.15;1.20;;;23.20;90.00;;;;;;5072437;28;20403;-71
2022/08/21 11:11:05;;;;;;;2.78;1.38;;;23.30;83.80;;;;;;5072785;28;20028;-73
2022/08/21 11:13:55;;;;;;;;;;;23.50;85.00;;;;;;5072967;28;20071;-73
2022/08/21 11:16:44;;;;;;;1.90;1.20;;;23.60;80.90;;;;;;5077158;28;19986;-73
2022/08/21 11:19:19;;;;;;;2.25;1.40;;;23.60;79.90;;;;;;5085119;28;20020;-72
2022/08/21 11:22:54;;;;;;;1.95;1.15;;;23.50;76.30;;;;;;5080342;28;20020;-73
2022/08/21 11:25:27;;;;;;;4.55;1.40;;;23.20;78.70;;;;;;5045688;28;20132;-73
2022/08/21 11:28:24;;;;;;;1.98;1.27;;;22.90;78.50;;;;;;5045985;28;20473;-73
2022/08/21 11:30:56;;;;;;;3.58;1.10;;;22.60;79.20;;;;;;5079280;28;20075;-73
2022/08/21 11:33:35;;;;;;;3.00;1.27;;;22.50;82.20;;;;;;5095430;28;20027;-73
2022/08/21 11:36:15;;;;;;;2.05;1.20;;;22.40;82.70;;;;;;5096588;28;20111;-73
2022/08/21 11:38:47;;;;;;;2.30;1.08;;;22.60;80.90;;;;;;5081659;28;20020;-72
2022/08/21 11:41:12;;;;;;;2.33;1.30;;;22.70;79.90;;;;;;5095984;28;20032;-73
2022/08/21 11:44:03;;;;;;;2.33;1.13;;;23.10;80.00;;;;;;5076963;28;20040;-72
2022/08/21 11:47:05;;;;;;;2.58;1.33;;;23.30;77.70;;;;;;5083194;28;20186;-72
2022/08/21 11:49:42;;;;;;;3.10;1.50;;;23.60;78.40;;;;;;5071635;28;20078;-73
2022/08/21 11:52:14;;;;;;;2.72;1.25;;;23.70;77.10;;;;;;5075730;28;20032;-72
2022/08/21 11:54:46;;;;;;;2.53;1.10;;;23.70;75.50;;;;;;5085896;28;20028;-73
2022/08/21 11:57:31;;;;;;;5.20;1.10;;;23.70;75.70;;;;;;5088479;28;20063;-72
2022/08/21 12:00:03;;;;;;;2.45;1.17;;;23.60;80.00;;;;;;5098327;28;20069;-74
2022/08/21 12:02:34;;;;;;;2.47;1.30;;;23.70;81.80;;;;;;5113872;28;20039;-72
2022/08/21 12:05:06;;;;;;;1.73;1.00;;;23.70;83.60;;;;;;5116692;28;20114;-72
2022/08/21 12:07:37;;;;;;;2.45;1.40;;;23.60;81.00;;;;;;5116357;28;20043;-72
2022/08/21 12:10:08;;;;;;;;;;;23.50;82.40;;;;;;5093803;28;20032;-72
2022/08/21 12:12:36;;;;;;;3.17;1.50;;;23.50;82.90;;;;;;5097157;28;19926;-72
2022/08/21 12:15:17;;;;;;;2.72;1.10;;;23.40;76.70;;;;;;5095954;28;20105;-72
2022/08/21 12:18:00;;;;;;;4.13;1.52;;;23.40;76.70;;;;;;5115012;28;20023;-73
2022/08/21 12:21:17;;;;;;;3.92;1.30;;;23.20;77.80;;;;;;5116019;28;20032;-71
2022/08/21 12:24:16;;;;;;;3.58;1.33;;;23.00;77.40;;;;;;5115997;28;20030;-72
2022/08/21 12:27:01;;;;;;;2.10;1.20;;;22.70;78.60;;;;;;5116182;28;20420;-72
2022/08/21 12:29:37;;;;;;;2.42;1.40;;;22.60;79.30;;;;;;5115760;28;20067;-73
2022/08/21 12:32:14;;;;;;;2.42;1.20;;;22.50;80.60;;;;;;5116055;28;20026;-73
2022/08/21 12:35:01;;;;;;;3.25;1.45;;;22.50;79.10;;;;;;5115790;28;20028;-72
2022/08/21 12:37:43;;;;;;;2.60;1.40;;;22.50;81.50;;;;;;5115763;28;20019;-73
2022/08/21 12:40:42;;;;;;;3.22;1.60;;;22.80;85.10;;;;;;5112751;28;20110;-73
2022/08/21 12:43:16;;;;;;;2.53;1.42;;;23.10;82.10;;;;;;5081619;28;20059;-73
2022/08/21 12:45:46;;;;;;;2.83;1.58;;;23.30;77.60;;;;;;5074879;28;20051;-73
2022/08/21 12:48:38;;;;;;;3.88;1.40;;;23.40;82.10;;;;;;5098487;28;20501;-73
2022/08/21 12:51:17;;;;;;;2.08;1.25;;;23.80;81.80;;;;;;5092129;28;20028;-73
2022/08/21 12:53:50;;;;;;;2.50;1.40;;;24.10;78.00;;;;;;5075645;28;20024;-73
2022/08/21 12:56:22;;;;;;;2.80;1.30;;;24.30;74.00;;;;;;5074777;28;20079;-69
2022/08/21 12:58:55;;;;;;;3.90;1.20;;;24.50;73.70;;;;;;5076809;28;20461;-74
2022/08/21 13:01:47;;;;;;;2.10;1.20;;;24.50;74.10;;;;;;5089249;28;20432;-75
2022/08/21 13:04:23;;;;;;;2.58;1.40;;;24.50;82.00;;;;;;5093793;28;20022;-74
2022/08/21 13:06:52;;;;;;;2.38;1.40;;;24.70;78.90;;;;;;5103618;28;20032;-75
2022/08/21 13:09:25;;;;;;;3.35;1.30;;;24.70;72.50;;;;;;5093975;28;20032;-75
2022/08/21 13:11:51;;;;;;;2.63;1.25;;;24.80;73.60;;;;;;5095966;28;20019;-75